sensor_id;sensor_type;location;lat;lon;timestamp;P1;durP1;ratioP1;P2;durP2;ratioP2
22967;SDS011;11650;48.106;-1.696;2023-07-13T00:00:33;6.13;;;2.10;;
22967;SDS011;11650;48.106;-1.696;2023-07-13T00:02:58;6.67;;;2.77;;
22967;SDS011;11650;48.106;-1.696;2023-07-13T00:05:24;5.63;;;2.20;;
22967;SDS011;11650;48.106;-1.696;2023-07-13T00:07:50;8.67;;;2.33;;
22967;SDS011;11650;48.106;-1.696;2023-07-13T00:10:17;10.30;;;2.53;;
22967;SDS011;11650;48.106;-1.696;2023-07-13T00:12:43;5.77;;;2.23;;
22967;SDS011;11650;48.106;-1.696;2023-07-13T00:15:17;5.03;;;2.27;;
22967;SDS011;11650;48.106;-1.696;2023-07-13T00:17:51;11.10;;;3.00;;
22967;SDS011;11650;48.106;-1.696;2023-07-13T00:20:17;5.63;;;2.20;;
22967;SDS011;11650;48.106;-1.696;2023-07-13T00:22:47;11.07;;;3.13;;
22967;SDS011;11650;48.106;-1.696;2023-07-13T00:25:13;10.50;;;2.10;;
22967;SDS011;11650;48.106;-1.696;2023-07-13T00:27:39;7.77;;;2.50;;
22967;SDS011;11650;48.106;-1.696;2023-07-13T00:30:06;9.30;;;2.47;;
22967;SDS011;11650;48.106;-1.696;2023-07-13T00:32:33;9.03;;;2.20;;
22967;SDS011;11650;48.106;-1.696;2023-07-13T00:35:00;6.67;;;2.40;;
22967;SDS011;11650;48.106;-1.696;2023-07-13T00:37:26;7.23;;;2.20;;
22967;SDS011;11650;48.106;-1.696;2023-07-13T00:39:52;8.17;;;2.60;;
22967;SDS011;11650;48.106;-1.696;2023-07-13T00:42:17;9.60;;;2.20;;
22967;SDS011;11650;48.106;-1.696;2023-07-13T00:47:37;7.87;;;2.80;;
22967;SDS011;11650;48.106;-1.696;2023-07-13T00:50:03;8.87;;;2.40;;
22967;SDS011;11650;48.106;-1.696;2023-07-13T00:52:31;8.67;;;2.27;;
22967;SDS011;11650;48.106;-1.696;2023-07-13T00:54:57;10.37;;;2.50;;
22967;SDS011;11650;48.106;-1.696;2023-07-13T00:57:23;14.73;;;3.37;;
22967;SDS011;11650;48.106;-1.696;2023-07-13T00:59:51;9.83;;;2.83;;
22967;SDS011;11650;48.106;-1.696;2023-07-13T01:02:20;9.50;;;2.57;;
22967;SDS011;11650;48.106;-1.696;2023-07-13T01:04:47;10.70;;;2.90;;
22967;SDS011;11650;48.106;-1.696;2023-07-13T01:07:13;14.03;;;2.53;;
22967;SDS011;11650;48.106;-1.696;2023-07-13T01:09:39;9.87;;;2.47;;
22967;SDS011;11650;48.106;-1.696;2023-07-13T01:12:05;6.47;;;2.40;;
22967;SDS011;11650;48.106;-1.696;2023-07-13T01:14:31;9.53;;;2.27;;
22967;SDS011;11650;48.106;-1.696;2023-07-13T01:16:56;7.67;;;2.40;;
22967;SDS011;11650;48.106;-1.696;2023-07-13T01:19:38;9.07;;;2.87;;
22967;SDS011;11650;48.106;-1.696;2023-07-13T01:22:09;9.17;;;2.73;;
22967;SDS011;11650;48.106;-1.696;2023-07-13T01:24:36;8.07;;;2.47;;
22967;SDS011;11650;48.106;-1.696;2023-07-13T01:27:03;8.50;;;2.47;;
22967;SDS011;11650;48.106;-1.696;2023-07-13T01:29:31;6.97;;;2.70;;
22967;SDS011;11650;48.106;-1.696;2023-07-13T01:31:58;8.23;;;2.60;;
22967;SDS011;11650;48.106;-1.696;2023-07-13T01:34:25;8.87;;;2.63;;
22967;SDS011;11650;48.106;-1.696;2023-07-13T01:36:51;10.37;;;2.80;;
22967;SDS011;11650;48.106;-1.696;2023-07-13T01:39:18;9.67;;;2.73;;
22967;SDS011;11650;48.106;-1.696;2023-07-13T01:41:48;7.37;;;2.80;;
22967;SDS011;11650;48.106;-1.696;2023-07-13T01:44:14;9.43;;;2.80;;
22967;SDS011;11650;48.106;-1.696;2023-07-13T01:46:39;9.63;;;2.67;;
22967;SDS011;11650;48.106;-1.696;2023-07-13T01:49:05;12.40;;;2.70;;
22967;SDS011;11650;48.106;-1.696;2023-07-13T01:51:31;7.83;;;2.87;;
22967;SDS011;11650;48.106;-1.696;2023-07-13T01:53:57;10.97;;;2.87;;
22967;SDS011;11650;48.106;-1.696;2023-07-13T01:56:22;9.73;;;3.00;;
22967;SDS011;11650;48.106;-1.696;2023-07-13T01:58:48;9.40;;;2.93;;
22967;SDS011;11650;48.106;-1.696;2023-07-13T02:01:14;10.63;;;3.03;;
22967;SDS011;11650;48.106;-1.696;2023-07-13T02:03:40;12.10;;;2.87;;
22967;SDS011;11650;48.106;-1.696;2023-07-13T02:06:05;10.37;;;3.20;;
22967;SDS011;11650;48.106;-1.696;2023-07-13T02:08:32;10.30;;;3.07;;
22967;SDS011;11650;48.106;-1.696;2023-07-13T02:10:58;9.00;;;3.03;;
22967;SDS011;11650;48.106;-1.696;2023-07-13T02:13:24;10.87;;;2.93;;
22967;SDS011;11650;48.106;-1.696;2023-07-13T02:15:50;11.10;;;2.90;;
22967;SDS011;11650;48.106;-1.696;2023-07-13T02:18:16;10.80;;;2.90;;
22967;SDS011;11650;48.106;-1.696;2023-07-13T02:20:42;8.67;;;2.93;;
22967;SDS011;11650;48.106;-1.696;2023-07-13T02:23:08;10.30;;;3.07;;
22967;SDS011;11650;48.106;-1.696;2023-07-13T02:25:34;8.07;;;2.90;;
22967;SDS011;11650;48.106;-1.696;2023-07-13T02:28:00;11.20;;;3.07;;
22967;SDS011;11650;48.106;-1.696;2023-07-13T02:30:26;11.10;;;3.10;;
22967;SDS011;11650;48.106;-1.696;2023-07-13T02:32:54;9.00;;;3.03;;
22967;SDS011;11650;48.106;-1.696;2023-07-13T02:35:23;11.73;;;3.63;;
22967;SDS011;11650;48.106;-1.696;2023-07-13T02:37:49;9.90;;;3.17;;
22967;SDS011;11650;48.106;-1.696;2023-07-13T02:40:14;10.23;;;2.77;;
22967;SDS011;11650;48.106;-1.696;2023-07-13T02:42:40;12.90;;;3.10;;
22967;SDS011;11650;48.106;-1.696;2023-07-13T02:45:06;10.30;;;2.97;;
22967;SDS011;11650;48.106;-1.696;2023-07-13T02:47:33;13.20;;;2.90;;
22967;SDS011;11650;48.106;-1.696;2023-07-13T02:49:59;12.27;;;3.07;;
22967;SDS011;11650;48.106;-1.696;2023-07-13T02:52:25;14.13;;;2.90;;
22967;SDS011;11650;48.106;-1.696;2023-07-13T02:54:50;10.80;;;2.90;;
22967;SDS011;11650;48.106;-1.696;2023-07-13T02:57:16;17.70;;;3.30;;
22967;SDS011;11650;48.106;-1.696;2023-07-13T02:59:42;11.90;;;3.50;;
22967;SDS011;11650;48.106;-1.696;2023-07-13T03:02:07;13.87;;;3.47;;
22967;SDS011;11650;48.106;-1.696;2023-07-13T03:04:35;16.90;;;3.80;;
22967;SDS011;11650;48.106;-1.696;2023-07-13T03:07:01;9.13;;;2.73;;
22967;SDS011;11650;48.106;-1.696;2023-07-13T03:09:28;11.57;;;3.33;;
22967;SDS011;11650;48.106;-1.696;2023-07-13T03:11:54;10.50;;;3.00;;
22967;SDS011;11650;48.106;-1.696;2023-07-13T03:14:21;14.17;;;2.97;;
22967;SDS011;11650;48.106;-1.696;2023-07-13T03:16:48;11.13;;;2.73;;
22967;SDS011;11650;48.106;-1.696;2023-07-13T03:19:14;18.13;;;3.77;;
22967;SDS011;11650;48.106;-1.696;2023-07-13T03:21:40;8.77;;;3.03;;
22967;SDS011;11650;48.106;-1.696;2023-07-13T03:24:06;14.20;;;3.47;;
22967;SDS011;11650;48.106;-1.696;2023-07-13T03:26:31;11.90;;;3.20;;
22967;SDS011;11650;48.106;-1.696;2023-07-13T03:28:57;14.73;;;3.50;;
22967;SDS011;11650;48.106;-1.696;2023-07-13T03:31:24;10.77;;;3.43;;
22967;SDS011;11650;48.106;-1.696;2023-07-13T03:33:52;9.27;;;3.17;;
22967;SDS011;11650;48.106;-1.696;2023-07-13T03:36:19;9.60;;;3.03;;
22967;SDS011;11650;48.106;-1.696;2023-07-13T03:38:48;12.17;;;3.50;;
22967;SDS011;11650;48.106;-1.696;2023-07-13T03:41:24;16.90;;;3.23;;
22967;SDS011;11650;48.106;-1.696;2023-07-13T03:43:51;9.87;;;3.03;;
22967;SDS011;11650;48.106;-1.696;2023-07-13T03:46:17;7.80;;;2.90;;
22967;SDS011;11650;48.106;-1.696;2023-07-13T03:48:46;11.97;;;3.30;;
22967;SDS011;11650;48.106;-1.696;2023-07-13T03:51:13;13.50;;;3.07;;
22967;SDS011;11650;48.106;-1.696;2023-07-13T03:53:40;13.23;;;3.40;;
22967;SDS011;11650;48.106;-1.696;2023-07-13T03:56:07;10.77;;;3.20;;
22967;SDS011;11650;48.106;-1.696;2023-07-13T03:58:34;15.87;;;3.73;;
22967;SDS011;11650;48.106;-1.696;2023-07-13T04:01:02;10.50;;;2.87;;
22967;SDS011;11650;48.106;-1.696;2023-07-13T04:03:30;11.93;;;3.50;;
22967;SDS011;11650;48.106;-1.696;2023-07-13T04:05:58;12.67;;;3.20;;
22967;SDS011;11650;48.106;-1.696;2023-07-13T04:08:29;12.17;;;3.17;;
22967;SDS011;11650;48.106;-1.696;2023-07-13T04:10:56;10.87;;;3.00;;
22967;SDS011;11650;48.106;-1.696;2023-07-13T04:13:23;11.63;;;3.50;;
22967;SDS011;11650;48.106;-1.696;2023-07-13T04:15:49;13.10;;;3.47;;
22967;SDS011;11650;48.106;-1.696;2023-07-13T04:18:16;10.70;;;3.37;;
22967;SDS011;11650;48.106;-1.696;2023-07-13T04:20:41;11.80;;;3.40;;
22967;SDS011;11650;48.106;-1.696;2023-07-13T04:23:07;12.80;;;3.63;;
22967;SDS011;11650;48.106;-1.696;2023-07-13T04:25:33;13.87;;;3.37;;
22967;SDS011;11650;48.106;-1.696;2023-07-13T04:27:58;11.17;;;3.53;;
22967;SDS011;11650;48.106;-1.696;2023-07-13T04:30:24;11.03;;;3.83;;
22967;SDS011;11650;48.106;-1.696;2023-07-13T04:32:51;13.83;;;3.83;;
22967;SDS011;11650;48.106;-1.696;2023-07-13T04:35:18;13.37;;;3.63;;
22967;SDS011;11650;48.106;-1.696;2023-07-13T04:37:46;12.67;;;3.67;;
22967;SDS011;11650;48.106;-1.696;2023-07-13T04:40:13;13.53;;;3.63;;
22967;SDS011;11650;48.106;-1.696;2023-07-13T04:42:39;12.43;;;3.87;;
22967;SDS011;11650;48.106;-1.696;2023-07-13T04:45:05;15.30;;;3.80;;
22967;SDS011;11650;48.106;-1.696;2023-07-13T04:47:32;21.23;;;4.43;;
22967;SDS011;11650;48.106;-1.696;2023-07-13T04:49:57;9.97;;;3.40;;
22967;SDS011;11650;48.106;-1.696;2023-07-13T04:52:24;10.17;;;3.50;;
22967;SDS011;11650;48.106;-1.696;2023-07-13T04:54:49;10.37;;;3.40;;
22967;SDS011;11650;48.106;-1.696;2023-07-13T04:57:15;14.30;;;4.07;;
22967;SDS011;11650;48.106;-1.696;2023-07-13T04:59:41;11.23;;;3.90;;
22967;SDS011;11650;48.106;-1.696;2023-07-13T05:02:07;11.80;;;3.77;;
22967;SDS011;11650;48.106;-1.696;2023-07-13T05:04:33;11.93;;;3.30;;
22967;SDS011;11650;48.106;-1.696;2023-07-13T05:06:58;13.90;;;3.53;;
22967;SDS011;11650;48.106;-1.696;2023-07-13T05:09:24;17.60;;;4.20;;
22967;SDS011;11650;48.106;-1.696;2023-07-13T05:11:50;14.23;;;3.90;;
22967;SDS011;11650;48.106;-1.696;2023-07-13T05:14:15;22.40;;;3.90;;
22967;SDS011;11650;48.106;-1.696;2023-07-13T05:16:41;14.57;;;3.80;;
22967;SDS011;11650;48.106;-1.696;2023-07-13T05:19:07;13.83;;;3.50;;
22967;SDS011;11650;48.106;-1.696;2023-07-13T05:21:34;13.93;;;3.70;;
22967;SDS011;11650;48.106;-1.696;2023-07-13T05:23:59;18.30;;;3.63;;
22967;SDS011;11650;48.106;-1.696;2023-07-13T05:26:25;15.70;;;3.93;;
22967;SDS011;11650;48.106;-1.696;2023-07-13T05:28:51;14.20;;;3.53;;
22967;SDS011;11650;48.106;-1.696;2023-07-13T05:31:16;15.20;;;4.03;;
22967;SDS011;11650;48.106;-1.696;2023-07-13T05:33:42;12.50;;;3.23;;
22967;SDS011;11650;48.106;-1.696;2023-07-13T05:36:08;13.77;;;3.47;;
22967;SDS011;11650;48.106;-1.696;2023-07-13T05:38:33;16.00;;;4.30;;
22967;SDS011;11650;48.106;-1.696;2023-07-13T05:40:59;10.87;;;3.77;;
22967;SDS011;11650;48.106;-1.696;2023-07-13T05:43:25;14.10;;;3.50;;
22967;SDS011;11650;48.106;-1.696;2023-07-13T05:45:52;15.83;;;3.80;;
22967;SDS011;11650;48.106;-1.696;2023-07-13T05:48:19;13.27;;;3.87;;
22967;SDS011;11650;48.106;-1.696;2023-07-13T05:50:45;8.80;;;3.50;;
22967;SDS011;11650;48.106;-1.696;2023-07-13T05:53:11;20.03;;;3.40;;
22967;SDS011;11650;48.106;-1.696;2023-07-13T05:55:44;19.80;;;3.80;;
22967;SDS011;11650;48.106;-1.696;2023-07-13T05:58:18;20.70;;;3.73;;
22967;SDS011;11650;48.106;-1.696;2023-07-13T06:00:44;14.13;;;3.90;;
22967;SDS011;11650;48.106;-1.696;2023-07-13T06:03:11;18.23;;;3.60;;
22967;SDS011;11650;48.106;-1.696;2023-07-13T06:05:36;20.57;;;4.17;;
22967;SDS011;11650;48.106;-1.696;2023-07-13T06:08:04;16.93;;;3.90;;
22967;SDS011;11650;48.106;-1.696;2023-07-13T06:10:34;22.97;;;4.17;;
22967;SDS011;11650;48.106;-1.696;2023-07-13T06:13:00;15.40;;;3.73;;
22967;SDS011;11650;48.106;-1.696;2023-07-13T06:15:26;15.77;;;3.87;;
22967;SDS011;11650;48.106;-1.696;2023-07-13T06:17:52;13.30;;;3.70;;
22967;SDS011;11650;48.106;-1.696;2023-07-13T06:20:18;12.77;;;3.30;;
22967;SDS011;11650;48.106;-1.696;2023-07-13T06:22:43;16.90;;;4.40;;
22967;SDS011;11650;48.106;-1.696;2023-07-13T06:25:09;22.47;;;3.80;;
22967;SDS011;11650;48.106;-1.696;2023-07-13T06:27:34;20.50;;;4.53;;
22967;SDS011;11650;48.106;-1.696;2023-07-13T06:30:00;19.17;;;3.77;;
22967;SDS011;11650;48.106;-1.696;2023-07-13T06:32:26;18.23;;;3.90;;
22967;SDS011;11650;48.106;-1.696;2023-07-13T06:34:52;16.90;;;3.77;;
22967;SDS011;11650;48.106;-1.696;2023-07-13T06:37:17;18.00;;;4.13;;
22967;SDS011;11650;48.106;-1.696;2023-07-13T06:39:43;14.83;;;3.73;;
22967;SDS011;11650;48.106;-1.696;2023-07-13T06:42:09;15.23;;;3.50;;
22967;SDS011;11650;48.106;-1.696;2023-07-13T06:44:36;16.10;;;3.97;;
22967;SDS011;11650;48.106;-1.696;2023-07-13T06:47:01;18.07;;;3.70;;
22967;SDS011;11650;48.106;-1.696;2023-07-13T06:49:27;14.13;;;3.50;;
22967;SDS011;11650;48.106;-1.696;2023-07-13T06:51:53;14.67;;;3.87;;
22967;SDS011;11650;48.106;-1.696;2023-07-13T06:54:18;10.87;;;3.40;;
22967;SDS011;11650;48.106;-1.696;2023-07-13T06:56:44;20.07;;;4.10;;
22967;SDS011;11650;48.106;-1.696;2023-07-13T06:59:09;16.30;;;4.20;;
22967;SDS011;11650;48.106;-1.696;2023-07-13T07:01:35;10.97;;;3.40;;
22967;SDS011;11650;48.106;-1.696;2023-07-13T07:04:01;15.03;;;4.17;;
22967;SDS011;11650;48.106;-1.696;2023-07-13T07:06:27;11.97;;;3.23;;
22967;SDS011;11650;48.106;-1.696;2023-07-13T07:08:53;13.60;;;3.47;;
22967;SDS011;11650;48.106;-1.696;2023-07-13T07:11:23;10.90;;;3.13;;
22967;SDS011;11650;48.106;-1.696;2023-07-13T07:13:50;12.77;;;3.50;;
22967;SDS011;11650;48.106;-1.696;2023-07-13T07:16:17;14.47;;;3.40;;
22967;SDS011;11650;48.106;-1.696;2023-07-13T07:18:43;14.63;;;4.10;;
22967;SDS011;11650;48.106;-1.696;2023-07-13T07:21:09;11.67;;;3.40;;
22967;SDS011;11650;48.106;-1.696;2023-07-13T07:23:35;14.83;;;3.40;;
22967;SDS011;11650;48.106;-1.696;2023-07-13T07:26:00;12.37;;;3.40;;
22967;SDS011;11650;48.106;-1.696;2023-07-13T07:28:26;10.70;;;3.30;;
22967;SDS011;11650;48.106;-1.696;2023-07-13T07:30:54;13.10;;;3.50;;
22967;SDS011;11650;48.106;-1.696;2023-07-13T07:33:21;13.37;;;3.50;;
22967;SDS011;11650;48.106;-1.696;2023-07-13T07:35:46;12.57;;;3.43;;
22967;SDS011;11650;48.106;-1.696;2023-07-13T07:38:12;11.93;;;4.07;;
22967;SDS011;11650;48.106;-1.696;2023-07-13T07:40:38;17.40;;;3.90;;
22967;SDS011;11650;48.106;-1.696;2023-07-13T07:43:09;18.93;;;4.00;;
22967;SDS011;11650;48.106;-1.696;2023-07-13T07:45:35;23.13;;;4.17;;
22967;SDS011;11650;48.106;-1.696;2023-07-13T07:48:02;18.00;;;3.70;;
22967;SDS011;11650;48.106;-1.696;2023-07-13T07:50:29;16.10;;;3.53;;
22967;SDS011;11650;48.106;-1.696;2023-07-13T07:52:55;16.50;;;3.47;;
22967;SDS011;11650;48.106;-1.696;2023-07-13T07:55:21;8.57;;;2.87;;
22967;SDS011;11650;48.106;-1.696;2023-07-13T07:57:48;11.00;;;2.90;;
22967;SDS011;11650;48.106;-1.696;2023-07-13T08:00:14;16.57;;;3.57;;
22967;SDS011;11650;48.106;-1.696;2023-07-13T08:02:41;10.20;;;3.00;;
22967;SDS011;11650;48.106;-1.696;2023-07-13T08:05:07;17.27;;;3.30;;
22967;SDS011;11650;48.106;-1.696;2023-07-13T08:07:34;12.33;;;3.47;;
22967;SDS011;11650;48.106;-1.696;2023-07-13T08:10:00;13.50;;;2.93;;
22967;SDS011;11650;48.106;-1.696;2023-07-13T08:12:26;15.17;;;3.13;;
22967;SDS011;11650;48.106;-1.696;2023-07-13T08:14:52;9.77;;;2.80;;
22967;SDS011;11650;48.106;-1.696;2023-07-13T08:17:19;11.43;;;3.07;;
22967;SDS011;11650;48.106;-1.696;2023-07-13T08:19:45;13.80;;;3.20;;
22967;SDS011;11650;48.106;-1.696;2023-07-13T08:22:11;8.73;;;2.90;;
22967;SDS011;11650;48.106;-1.696;2023-07-13T08:24:36;10.10;;;2.63;;
22967;SDS011;11650;48.106;-1.696;2023-07-13T08:27:02;12.37;;;2.37;;
22967;SDS011;11650;48.106;-1.696;2023-07-13T08:29:28;7.60;;;2.30;;
22967;SDS011;11650;48.106;-1.696;2023-07-13T08:31:57;9.47;;;2.27;;
22967;SDS011;11650;48.106;-1.696;2023-07-13T08:34:22;6.27;;;2.23;;
22967;SDS011;11650;48.106;-1.696;2023-07-13T08:36:49;8.57;;;2.20;;
22967;SDS011;11650;48.106;-1.696;2023-07-13T08:39:14;8.07;;;1.77;;
22967;SDS011;11650;48.106;-1.696;2023-07-13T08:41:40;6.80;;;2.10;;
22967;SDS011;11650;48.106;-1.696;2023-07-13T08:44:07;9.47;;;2.20;;
22967;SDS011;11650;48.106;-1.696;2023-07-13T08:46:44;8.00;;;2.10;;
22967;SDS011;11650;48.106;-1.696;2023-07-13T08:49:13;8.73;;;2.20;;
22967;SDS011;11650;48.106;-1.696;2023-07-13T08:51:53;10.20;;;2.20;;
22967;SDS011;11650;48.106;-1.696;2023-07-13T08:54:32;6.80;;;1.77;;
22967;SDS011;11650;48.106;-1.696;2023-07-13T08:57:03;7.17;;;2.10;;
22967;SDS011;11650;48.106;-1.696;2023-07-13T08:59:46;5.90;;;2.23;;
22967;SDS011;11650;48.106;-1.696;2023-07-13T09:02:18;7.73;;;2.67;;
22967;SDS011;11650;48.106;-1.696;2023-07-13T09:04:54;5.63;;;1.70;;
22967;SDS011;11650;48.106;-1.696;2023-07-13T09:10:23;7.93;;;1.40;;
22967;SDS011;11650;48.106;-1.696;2023-07-13T09:15:37;5.40;;;1.60;;
22967;SDS011;11650;48.106;-1.696;2023-07-13T09:18:08;5.90;;;1.77;;
22967;SDS011;11650;48.106;-1.696;2023-07-13T09:20:42;6.13;;;1.60;;
22967;SDS011;11650;48.106;-1.696;2023-07-13T09:23:18;6.87;;;1.70;;
22967;SDS011;11650;48.106;-1.696;2023-07-13T09:25:52;5.23;;;1.70;;
22967;SDS011;11650;48.106;-1.696;2023-07-13T09:28:22;5.17;;;1.70;;
22967;SDS011;11650;48.106;-1.696;2023-07-13T09:33:47;4.87;;;1.70;;
22967;SDS011;11650;48.106;-1.696;2023-07-13T09:38:44;6.97;;;2.13;;
22967;SDS011;11650;48.106;-1.696;2023-07-13T09:41:29;9.53;;;3.00;;
22967;SDS011;11650;48.106;-1.696;2023-07-13T09:44:17;7.43;;;2.30;;
22967;SDS011;11650;48.106;-1.696;2023-07-13T09:46:53;6.60;;;2.47;;
22967;SDS011;11650;48.106;-1.696;2023-07-13T09:49:27;4.93;;;2.10;;
22967;SDS011;11650;48.106;-1.696;2023-07-13T09:51:58;4.07;;;1.60;;
22967;SDS011;11650;48.106;-1.696;2023-07-13T09:54:26;5.13;;;2.30;;
22967;SDS011;11650;48.106;-1.696;2023-07-13T09:56:58;5.07;;;1.77;;
22967;SDS011;11650;48.106;-1.696;2023-07-13T09:59:32;7.13;;;2.10;;
22967;SDS011;11650;48.106;-1.696;2023-07-13T10:01:58;7.50;;;2.40;;
22967;SDS011;11650;48.106;-1.696;2023-07-13T10:04:29;4.30;;;2.07;;
22967;SDS011;11650;48.106;-1.696;2023-07-13T10:07:08;5.23;;;1.80;;
22967;SDS011;11650;48.106;-1.696;2023-07-13T10:09:38;5.23;;;1.83;;
22967;SDS011;11650;48.106;-1.696;2023-07-13T10:12:04;2.60;;;1.50;;
22967;SDS011;11650;48.106;-1.696;2023-07-13T10:14:38;9.47;;;2.67;;
22967;SDS011;11650;48.106;-1.696;2023-07-13T10:17:08;7.07;;;1.73;;
22967;SDS011;11650;48.106;-1.696;2023-07-13T10:19:37;3.97;;;1.97;;
22967;SDS011;11650;48.106;-1.696;2023-07-13T10:24:52;5.73;;;1.70;;
22967;SDS011;11650;48.106;-1.696;2023-07-13T10:27:23;3.00;;;1.20;;
22967;SDS011;11650;48.106;-1.696;2023-07-13T10:30:21;3.23;;;1.50;;
22967;SDS011;11650;48.106;-1.696;2023-07-13T10:32:50;3.60;;;1.57;;
22967;SDS011;11650;48.106;-1.696;2023-07-13T10:35:18;4.13;;;1.60;;
22967;SDS011;11650;48.106;-1.696;2023-07-13T10:38:02;9.43;;;1.90;;
22967;SDS011;11650;48.106;-1.696;2023-07-13T10:40:39;6.07;;;1.37;;
22967;SDS011;11650;48.106;-1.696;2023-07-13T10:43:10;5.53;;;1.60;;
22967;SDS011;11650;48.106;-1.696;2023-07-13T10:46:05;5.90;;;1.97;;
22967;SDS011;11650;48.106;-1.696;2023-07-13T10:48:33;6.23;;;2.27;;
22967;SDS011;11650;48.106;-1.696;2023-07-13T10:51:01;4.57;;;1.90;;
22967;SDS011;11650;48.106;-1.696;2023-07-13T10:53:32;5.13;;;1.63;;
22967;SDS011;11650;48.106;-1.696;2023-07-13T10:56:00;5.37;;;1.67;;
22967;SDS011;11650;48.106;-1.696;2023-07-13T10:58:35;4.07;;;1.80;;
22967;SDS011;11650;48.106;-1.696;2023-07-13T11:01:09;4.50;;;1.60;;
22967;SDS011;11650;48.106;-1.696;2023-07-13T11:14:00;3.43;;;1.73;;
22967;SDS011;11650;48.106;-1.696;2023-07-13T11:16:45;4.33;;;1.90;;
22967;SDS011;11650;48.106;-1.696;2023-07-13T11:24:56;5.13;;;1.97;;
22967;SDS011;11650;48.106;-1.696;2023-07-13T11:27:50;5.50;;;1.70;;
22967;SDS011;11650;48.106;-1.696;2023-07-13T11:30:24;9.57;;;1.97;;
22967;SDS011;11650;48.106;-1.696;2023-07-13T11:35:41;3.13;;;1.67;;
22967;SDS011;11650;48.106;-1.696;2023-07-13T11:38:16;59.03;;;9.33;;
22967;SDS011;11650;48.106;-1.696;2023-07-13T11:40:47;12.10;;;2.67;;
22967;SDS011;11650;48.106;-1.696;2023-07-13T11:43:15;7.30;;;1.70;;
22967;SDS011;11650;48.106;-1.696;2023-07-13T11:45:42;4.23;;;1.40;;
22967;SDS011;11650;48.106;-1.696;2023-07-13T11:48:26;10.97;;;2.60;;
22967;SDS011;11650;48.106;-1.696;2023-07-13T11:50:58;5.67;;;1.80;;
22967;SDS011;11650;48.106;-1.696;2023-07-13T11:53:30;9.10;;;2.20;;
22967;SDS011;11650;48.106;-1.696;2023-07-13T11:56:05;4.47;;;1.73;;
22967;SDS011;11650;48.106;-1.696;2023-07-13T11:58:31;3.60;;;1.60;;
22967;SDS011;11650;48.106;-1.696;2023-07-13T12:01:00;4.90;;;1.83;;
22967;SDS011;11650;48.106;-1.696;2023-07-13T12:03:29;3.43;;;1.33;;
22967;SDS011;11650;48.106;-1.696;2023-07-13T12:05:57;8.43;;;2.13;;
22967;SDS011;11650;48.106;-1.696;2023-07-13T12:08:32;4.70;;;1.80;;
22967;SDS011;11650;48.106;-1.696;2023-07-13T12:11:06;3.53;;;1.50;;
22967;SDS011;11650;48.106;-1.696;2023-07-13T12:13:40;3.17;;;1.60;;
22967;SDS011;11650;48.106;-1.696;2023-07-13T12:16:14;7.57;;;1.87;;
22967;SDS011;11650;48.106;-1.696;2023-07-13T12:18:49;5.80;;;1.93;;
22967;SDS011;11650;48.106;-1.696;2023-07-13T12:21:18;8.50;;;1.80;;
22967;SDS011;11650;48.106;-1.696;2023-07-13T12:23:47;6.77;;;1.80;;
22967;SDS011;11650;48.106;-1.696;2023-07-13T12:26:14;3.80;;;1.70;;
22967;SDS011;11650;48.106;-1.696;2023-07-13T12:28:46;2.60;;;1.73;;
22967;SDS011;11650;48.106;-1.696;2023-07-13T12:31:30;5.07;;;1.80;;
22967;SDS011;11650;48.106;-1.696;2023-07-13T12:34:12;3.13;;;1.70;;
22967;SDS011;11650;48.106;-1.696;2023-07-13T12:39:20;4.17;;;1.77;;
22967;SDS011;11650;48.106;-1.696;2023-07-13T12:41:49;3.07;;;1.80;;
22967;SDS011;11650;48.106;-1.696;2023-07-13T12:44:17;4.80;;;2.10;;
22967;SDS011;11650;48.106;-1.696;2023-07-13T12:47:04;4.87;;;1.80;;
22967;SDS011;11650;48.106;-1.696;2023-07-13T12:49:39;5.03;;;1.87;;
22967;SDS011;11650;48.106;-1.696;2023-07-13T12:52:12;5.00;;;1.37;;
22967;SDS011;11650;48.106;-1.696;2023-07-13T12:54:41;5.60;;;2.00;;
22967;SDS011;11650;48.106;-1.696;2023-07-13T12:57:08;3.80;;;1.80;;
22967;SDS011;11650;48.106;-1.696;2023-07-13T12:59:41;4.40;;;1.73;;
22967;SDS011;11650;48.106;-1.696;2023-07-13T13:02:26;6.03;;;1.90;;
22967;SDS011;11650;48.106;-1.696;2023-07-13T13:04:56;4.97;;;1.83;;
22967;SDS011;11650;48.106;-1.696;2023-07-13T13:07:23;10.50;;;2.37;;
22967;SDS011;11650;48.106;-1.696;2023-07-13T13:09:49;8.60;;;2.30;;
22967;SDS011;11650;48.106;-1.696;2023-07-13T13:12:15;4.53;;;2.00;;
22967;SDS011;11650;48.106;-1.696;2023-07-13T13:14:42;6.77;;;2.30;;
22967;SDS011;11650;48.106;-1.696;2023-07-13T13:17:24;5.93;;;2.00;;
22967;SDS011;11650;48.106;-1.696;2023-07-13T13:19:52;7.63;;;2.20;;
22967;SDS011;11650;48.106;-1.696;2023-07-13T13:22:19;5.53;;;2.10;;
22967;SDS011;11650;48.106;-1.696;2023-07-13T13:24:45;5.73;;;2.03;;
22967;SDS011;11650;48.106;-1.696;2023-07-13T13:27:15;6.15;;;2.60;;
22967;SDS011;11650;48.106;-1.696;2023-07-13T13:29:43;6.10;;;2.25;;
22967;SDS011;11650;48.106;-1.696;2023-07-13T13:32:11;5.20;;;1.70;;
22967;SDS011;11650;48.106;-1.696;2023-07-13T13:34:38;6.83;;;1.90;;
22967;SDS011;11650;48.106;-1.696;2023-07-13T13:37:04;5.07;;;2.00;;
22967;SDS011;11650;48.106;-1.696;2023-07-13T13:39:40;4.53;;;1.70;;
22967;SDS011;11650;48.106;-1.696;2023-07-13T13:42:08;5.70;;;2.23;;
22967;SDS011;11650;48.106;-1.696;2023-07-13T13:44:34;3.57;;;1.70;;
22967;SDS011;11650;48.106;-1.696;2023-07-13T13:47:00;5.37;;;2.27;;
22967;SDS011;11650;48.106;-1.696;2023-07-13T13:49:27;5.57;;;1.80;;
22967;SDS011;11650;48.106;-1.696;2023-07-13T13:51:55;4.57;;;1.63;;
22967;SDS011;11650;48.106;-1.696;2023-07-13T13:54:21;8.60;;;2.13;;
22967;SDS011;11650;48.106;-1.696;2023-07-13T13:56:49;7.67;;;2.13;;
22967;SDS011;11650;48.106;-1.696;2023-07-13T13:59:16;4.93;;;1.93;;
22967;SDS011;11650;48.106;-1.696;2023-07-13T14:01:43;4.13;;;1.80;;
22967;SDS011;11650;48.106;-1.696;2023-07-13T14:04:28;4.90;;;1.90;;
22967;SDS011;11650;48.106;-1.696;2023-07-13T14:06:54;4.10;;;1.90;;
22967;SDS011;11650;48.106;-1.696;2023-07-13T14:09:20;5.57;;;1.80;;
22967;SDS011;11650;48.106;-1.696;2023-07-13T14:11:47;5.97;;;1.97;;
22967;SDS011;11650;48.106;-1.696;2023-07-13T14:14:16;7.10;;;2.25;;
22967;SDS011;11650;48.106;-1.696;2023-07-13T14:16:43;11.15;;;2.40;;
22967;SDS011;11650;48.106;-1.696;2023-07-13T14:19:12;6.90;;;2.47;;
22967;SDS011;11650;48.106;-1.696;2023-07-13T14:21:39;6.75;;;2.17;;
22967;SDS011;11650;48.106;-1.696;2023-07-13T14:24:05;6.32;;;2.15;;
22967;SDS011;11650;48.106;-1.696;2023-07-13T14:26:32;20.27;;;3.20;;
22967;SDS011;11650;48.106;-1.696;2023-07-13T14:29:04;5.88;;;2.10;;
22967;SDS011;11650;48.106;-1.696;2023-07-13T14:31:37;3.55;;;1.83;;
22967;SDS011;11650;48.106;-1.696;2023-07-13T14:34:03;4.72;;;1.75;;
22967;SDS011;11650;48.106;-1.696;2023-07-13T14:36:32;3.95;;;1.85;;
22967;SDS011;11650;48.106;-1.696;2023-07-13T14:39:14;7.88;;;2.05;;
22967;SDS011;11650;48.106;-1.696;2023-07-13T14:41:42;7.97;;;2.00;;
22967;SDS011;11650;48.106;-1.696;2023-07-13T14:44:10;6.83;;;1.90;;
22967;SDS011;11650;48.106;-1.696;2023-07-13T14:46:37;6.97;;;1.90;;
22967;SDS011;11650;48.106;-1.696;2023-07-13T14:49:04;3.77;;;2.20;;
22967;SDS011;11650;48.106;-1.696;2023-07-13T14:51:36;4.17;;;2.00;;
22967;SDS011;11650;48.106;-1.696;2023-07-13T14:54:03;9.57;;;2.23;;
22967;SDS011;11650;48.106;-1.696;2023-07-13T14:56:30;5.17;;;2.10;;
22967;SDS011;11650;48.106;-1.696;2023-07-13T14:58:56;5.37;;;1.93;;
22967;SDS011;11650;48.106;-1.696;2023-07-13T15:01:21;6.20;;;2.03;;
22967;SDS011;11650;48.106;-1.696;2023-07-13T15:03:48;3.80;;;1.80;;
22967;SDS011;11650;48.106;-1.696;2023-07-13T15:06:16;6.00;;;1.70;;
22967;SDS011;11650;48.106;-1.696;2023-07-13T15:08:42;11.63;;;2.47;;
22967;SDS011;11650;48.106;-1.696;2023-07-13T15:11:08;7.10;;;1.93;;
22967;SDS011;11650;48.106;-1.696;2023-07-13T15:13:37;5.37;;;1.97;;